createdAt,value
2018-12-15T00:02:05.677Z,16.73
2018-12-15T00:04:33.942Z,16.93
2018-12-15T00:07:02.268Z,18.73
2018-12-15T00:09:30.510Z,17.60
2018-12-15T00:11:59.190Z,16.97
2018-12-15T00:14:27.398Z,16.87
2018-12-15T00:16:55.699Z,17.17
2018-12-15T00:19:24.037Z,16.95
2018-12-15T00:21:52.539Z,18.10
2018-12-15T00:24:21.118Z,17.77
2018-12-15T00:26:49.421Z,17.50
2018-12-15T00:29:18.053Z,16.50
2018-12-15T00:31:46.545Z,17.40
2018-12-15T00:34:14.883Z,17.73
2018-12-15T00:36:43.773Z,17.40
2018-12-15T00:39:12.542Z,17.03
2018-12-15T00:41:44.150Z,18.60
2018-12-15T00:44:12.514Z,17.60
2018-12-15T00:46:41.085Z,17.50
2018-12-15T00:49:09.529Z,16.97
2018-12-15T00:51:38.027Z,18.20
2018-12-15T00:54:06.736Z,17.50
2018-12-15T00:56:34.972Z,18.50
2018-12-15T00:59:03.256Z,17.10
2018-12-15T01:01:31.430Z,17.53
2018-12-15T01:03:59.860Z,17.27
2018-12-15T01:06:28.326Z,17.97
2018-12-15T01:08:57.347Z,17.20
2018-12-15T01:11:25.825Z,17.87
2018-12-15T01:13:54.274Z,17.90
2018-12-15T01:16:22.637Z,17.50
2018-12-15T01:18:51.327Z,18.10
2018-12-15T01:21:19.563Z,17.27
2018-12-15T01:23:47.809Z,18.23
2018-12-15T01:26:16.414Z,18.80
2018-12-15T01:28:44.600Z,18.53
2018-12-15T01:31:13.200Z,18.10
2018-12-15T01:33:41.508Z,18.13
2018-12-15T01:36:10.108Z,18.17
2018-12-15T01:38:38.377Z,17.23
2018-12-15T01:41:06.688Z,17.73
2018-12-15T01:43:35.071Z,18.33
2018-12-15T01:46:04.787Z,17.53
2018-12-15T01:48:33.274Z,17.77
2018-12-15T01:51:05.769Z,18.47
2018-12-15T01:53:34.000Z,18.77
2018-12-15T01:56:02.406Z,17.53
2018-12-15T01:58:30.657Z,18.67
2018-12-15T02:00:59.777Z,17.67
2018-12-15T02:03:28.045Z,17.93
2018-12-15T02:05:56.261Z,18.50
2018-12-15T02:08:24.530Z,18.37
2018-12-15T02:10:53.205Z,18.07
2018-12-15T02:13:21.426Z,17.90
2018-12-15T02:15:49.697Z,19.20
2018-12-15T02:18:18.301Z,17.97
2018-12-15T02:20:46.676Z,17.80
2018-12-15T02:23:15.062Z,17.80
2018-12-15T02:25:43.259Z,18.87
2018-12-15T02:28:11.901Z,18.17
2018-12-15T02:30:40.130Z,16.87
2018-12-15T02:33:08.398Z,19.20
2018-12-15T02:35:36.833Z,18.20
2018-12-15T02:38:05.129Z,18.57
2018-12-15T02:40:33.428Z,18.03
2018-12-15T02:43:02.281Z,18.17
2018-12-15T02:45:30.559Z,18.53
2018-12-15T02:47:58.885Z,18.33
2018-12-15T02:50:27.711Z,18.00
2018-12-15T02:52:56.409Z,18.17
2018-12-15T02:55:24.715Z,17.63
2018-12-15T02:57:53.259Z,18.20
2018-12-15T03:00:21.741Z,18.90
2018-12-15T03:02:50.026Z,18.10
2018-12-15T03:05:18.508Z,18.67
2018-12-15T03:07:47.123Z,18.47
2018-12-15T03:10:15.324Z,17.67
2018-12-15T03:12:43.873Z,19.30
2018-12-15T03:15:12.045Z,18.33
2018-12-15T03:17:40.253Z,17.40
2018-12-15T03:20:08.809Z,18.37
2018-12-15T03:22:37.041Z,17.90
2018-12-15T03:25:05.605Z,18.70
2018-12-15T03:27:34.067Z,19.30
2018-12-15T03:30:02.315Z,17.80
2018-12-15T03:32:30.567Z,18.30
2018-12-15T03:34:58.921Z,19.23
2018-12-15T03:37:27.128Z,18.03
2018-12-15T03:39:55.450Z,18.87
2018-12-15T03:42:23.653Z,17.87
2018-12-15T03:44:52.016Z,18.00
2018-12-15T03:47:20.207Z,17.73
2018-12-15T03:49:48.453Z,18.17
2018-12-15T03:52:16.790Z,17.43
2018-12-15T03:54:45.187Z,18.27
2018-12-15T03:57:13.428Z,17.63
2018-12-15T03:59:41.775Z,18.53
2018-12-15T04:02:09.966Z,18.00
2018-12-15T04:04:38.487Z,17.57
2018-12-15T04:07:07.506Z,17.53
2018-12-15T04:09:35.797Z,17.43
2018-12-15T04:12:04.215Z,19.10
2018-12-15T04:14:32.528Z,18.43
2018-12-15T04:17:01.114Z,18.07
2018-12-15T04:19:29.591Z,18.13
2018-12-15T04:22:03.677Z,18.27
2018-12-15T04:24:31.886Z,17.00
2018-12-15T04:27:00.151Z,17.13
2018-12-15T04:29:28.475Z,17.67
2018-12-15T04:31:56.768Z,17.57
2018-12-15T04:34:25.195Z,16.37
2018-12-15T04:36:53.481Z,17.93
2018-12-15T04:39:21.746Z,17.23
2018-12-15T04:41:49.982Z,18.30
2018-12-15T04:44:18.394Z,17.00
2018-12-15T04:46:48.354Z,16.70
2018-12-15T04:49:16.583Z,16.07
2018-12-15T04:51:44.861Z,16.70
2018-12-15T04:54:13.144Z,16.57
2018-12-15T04:56:41.366Z,15.93
2018-12-15T04:59:09.967Z,15.90
2018-12-15T05:01:38.260Z,15.97
2018-12-15T05:04:06.516Z,16.37
2018-12-15T05:06:34.724Z,16.10
2018-12-15T05:09:03.252Z,15.90
2018-12-15T05:11:31.555Z,14.70
2018-12-15T05:13:59.753Z,16.10
2018-12-15T05:16:27.973Z,15.73
2018-12-15T05:18:56.250Z,16.40
2018-12-15T05:21:24.612Z,15.43
2018-12-15T05:23:57.990Z,16.40
2018-12-15T05:26:26.445Z,16.23
2018-12-15T05:28:55.315Z,16.30
2018-12-15T05:31:23.629Z,16.10
2018-12-15T05:33:52.026Z,16.23
2018-12-15T05:36:20.589Z,16.10
2018-12-15T05:38:48.829Z,16.13
2018-12-15T05:41:17.164Z,17.13
2018-12-15T05:43:45.386Z,16.30
2018-12-15T05:46:13.591Z,16.00
2018-12-15T05:48:41.968Z,16.30
2018-12-15T05:51:10.411Z,15.70
2018-12-15T05:53:38.570Z,15.60
2018-12-15T05:56:06.809Z,15.37
2018-12-15T05:58:35.273Z,16.13
2018-12-15T06:01:03.521Z,16.73
2018-12-15T06:03:31.891Z,16.57
2018-12-15T06:06:00.101Z,16.73
2018-12-15T06:08:28.281Z,15.70
2018-12-15T06:10:56.597Z,15.90
2018-12-15T06:13:24.799Z,16.47
2018-12-15T06:15:53.187Z,17.20
2018-12-15T06:18:21.434Z,17.47
2018-12-15T06:20:50.397Z,17.30
2018-12-15T06:23:18.726Z,16.80
2018-12-15T06:25:46.999Z,17.67
2018-12-15T06:28:15.265Z,16.93
2018-12-15T06:30:43.609Z,17.57
2018-12-15T06:33:11.887Z,16.27
2018-12-15T06:35:40.146Z,17.27
2018-12-15T06:38:08.462Z,16.83
2018-12-15T06:40:36.861Z,16.97
2018-12-15T06:43:05.085Z,17.33
2018-12-15T06:45:33.349Z,16.37
2018-12-15T06:48:01.592Z,17.07
2018-12-15T06:50:29.887Z,17.00
2018-12-15T06:52:58.155Z,17.27
2018-12-15T06:55:26.822Z,15.93
2018-12-15T06:57:55.173Z,16.70
2018-12-15T07:00:23.762Z,15.27
2018-12-15T07:02:52.025Z,15.57
2018-12-15T07:05:20.214Z,15.90
2018-12-15T07:07:48.642Z,16.77
2018-12-15T07:10:17.588Z,16.85
2018-12-15T07:12:45.855Z,15.70
2018-12-15T07:15:14.065Z,15.43
2018-12-15T07:17:42.447Z,16.03
2018-12-15T07:20:10.637Z,14.53
2018-12-15T07:22:38.830Z,15.43
2018-12-15T07:25:07.188Z,16.10
2018-12-15T07:27:35.551Z,15.53
2018-12-15T07:30:04.721Z,15.23
2018-12-15T07:32:33.079Z,15.60
2018-12-15T07:35:01.469Z,14.20
2018-12-15T07:37:29.697Z,13.47
2018-12-15T07:39:57.901Z,13.87
2018-12-15T07:42:26.175Z,13.13
2018-12-15T07:44:54.545Z,14.63
2018-12-15T07:47:22.767Z,13.90
2018-12-15T07:49:51.195Z,12.70
2018-12-15T07:52:20.081Z,13.55
2018-12-15T07:54:48.442Z,12.67
2018-12-15T07:57:17.208Z,14.17
2018-12-15T07:59:45.417Z,13.87
2018-12-15T08:02:13.701Z,14.63
2018-12-15T08:04:42.101Z,15.10
2018-12-15T08:07:10.721Z,13.87
2018-12-15T08:09:39.545Z,15.57
2018-12-15T08:12:13.541Z,15.73
2018-12-15T08:14:42.081Z,15.00
2018-12-15T08:17:10.491Z,16.33
2018-12-15T08:19:39.409Z,16.03
2018-12-15T08:22:07.800Z,15.80
2018-12-15T08:24:36.160Z,16.17
2018-12-15T08:27:04.963Z,13.00
2018-12-15T08:29:33.142Z,14.00
2018-12-15T08:32:01.504Z,14.93
2018-12-15T08:34:29.858Z,15.57
2018-12-15T08:36:58.414Z,16.90
2018-12-15T08:39:26.744Z,16.07
2018-12-15T08:41:55.281Z,17.17
2018-12-15T08:44:23.512Z,15.87
2018-12-15T08:46:51.971Z,16.63
2018-12-15T08:49:20.285Z,17.73
2018-12-15T08:51:48.584Z,17.77
2018-12-15T08:54:17.068Z,17.93
2018-12-15T08:56:45.449Z,17.73
2018-12-15T08:59:13.692Z,17.80
2018-12-15T09:01:41.998Z,18.67
2018-12-15T09:04:10.314Z,18.80
2018-12-15T09:06:38.634Z,16.70
2018-12-15T09:09:07.138Z,15.77
2018-12-15T09:11:35.497Z,16.37
2018-12-15T09:14:04.602Z,16.33
2018-12-15T09:16:32.991Z,15.87
2018-12-15T09:19:01.254Z,18.03
2018-12-15T09:21:29.573Z,15.50
2018-12-15T09:23:57.878Z,16.53
2018-12-15T09:26:26.134Z,16.50
2018-12-15T09:28:54.892Z,16.43
2018-12-15T09:31:23.245Z,16.77
2018-12-15T09:33:51.550Z,18.30
2018-12-15T09:36:20.122Z,18.13
2018-12-15T09:38:48.583Z,17.27
2018-12-15T09:41:16.942Z,16.57
2018-12-15T09:43:45.570Z,16.23
2018-12-15T09:46:13.928Z,23.23
2018-12-15T09:48:42.353Z,23.90
2018-12-15T09:51:10.796Z,14.83
2018-12-15T09:53:39.884Z,14.07
2018-12-15T09:56:08.340Z,16.02
2018-12-15T09:58:36.731Z,17.23
2018-12-15T10:01:05.550Z,15.17
2018-12-15T10:03:38.194Z,15.70
2018-12-15T10:06:06.957Z,16.10
2018-12-15T10:08:35.670Z,16.77
2018-12-15T10:11:04.073Z,16.67
2018-12-15T10:13:32.452Z,16.63
2018-12-15T10:16:00.895Z,16.77
2018-12-15T10:18:29.223Z,15.20
2018-12-15T10:20:57.940Z,15.50
2018-12-15T10:23:27.450Z,16.03
2018-12-15T10:25:55.967Z,16.27
2018-12-15T10:28:24.250Z,15.20
2018-12-15T10:30:58.005Z,15.60
2018-12-15T10:33:26.282Z,12.30
2018-12-15T10:35:54.736Z,14.07
2018-12-15T10:38:23.283Z,19.97
2018-12-15T10:40:51.668Z,15.70
2018-12-15T10:43:20.292Z,16.70
2018-12-15T10:45:49.194Z,16.97
2018-12-15T10:48:17.654Z,14.83
2018-12-15T10:50:46.192Z,13.90
2018-12-15T10:53:14.625Z,13.70
2018-12-15T10:55:43.036Z,14.20
2018-12-15T10:58:11.605Z,13.40
2018-12-15T11:00:45.554Z,14.00
2018-12-15T11:03:13.975Z,14.37
2018-12-15T11:05:42.458Z,13.60
2018-12-15T11:08:10.971Z,13.10
2018-12-15T11:10:39.550Z,12.37
2018-12-15T11:13:13.361Z,13.73
2018-12-15T11:15:41.822Z,13.57
2018-12-15T11:18:10.206Z,13.43
2018-12-15T11:20:38.415Z,13.53
2018-12-15T11:23:06.688Z,11.93
2018-12-15T11:25:35.012Z,12.00
2018-12-15T11:28:03.359Z,11.63
2018-12-15T11:30:33.438Z,11.93
2018-12-15T11:33:01.718Z,11.77
2018-12-15T11:35:30.637Z,12.93
2018-12-15T11:37:59.003Z,13.57
2018-12-15T11:40:27.390Z,13.10
2018-12-15T11:42:55.864Z,13.20
2018-12-15T11:45:24.250Z,12.57
2018-12-15T11:47:52.558Z,12.20
2018-12-15T11:50:21.075Z,13.60
2018-12-15T11:52:49.406Z,12.63
2018-12-15T11:55:17.847Z,11.70
2018-12-15T11:57:46.215Z,12.77
2018-12-15T12:00:14.732Z,12.00
2018-12-15T12:02:43.223Z,11.50
2018-12-15T12:05:11.692Z,11.80
2018-12-15T12:07:40.027Z,11.60
2018-12-15T12:10:08.726Z,11.53
2018-12-15T12:12:36.987Z,11.07
2018-12-15T12:15:06.195Z,10.73
2018-12-15T12:17:34.578Z,11.30
2018-12-15T12:20:03.919Z,11.13
2018-12-15T12:22:33.025Z,11.93
2018-12-15T12:25:01.291Z,12.97
2018-12-15T12:27:29.859Z,11.63
2018-12-15T12:30:03.387Z,11.47
2018-12-15T12:32:31.701Z,12.00
2018-12-15T12:35:00.365Z,11.33
2018-12-15T12:37:28.670Z,11.37
2018-12-15T12:39:57.202Z,10.97
2018-12-15T12:42:25.561Z,11.47
2018-12-15T12:44:54.034Z,11.00
2018-12-15T12:47:22.645Z,10.73
2018-12-15T12:49:56.689Z,10.90
2018-12-15T12:52:21.591Z,10.93
2018-12-15T12:54:49.937Z,10.83
2018-12-15T12:57:18.763Z,11.00
2018-12-15T12:59:47.017Z,11.00
2018-12-15T13:02:15.418Z,11.50
2018-12-15T13:04:43.680Z,11.73
2018-12-15T13:07:12.051Z,11.07
2018-12-15T13:09:40.604Z,12.13
2018-12-15T13:12:08.924Z,12.80
2018-12-15T13:14:37.402Z,12.93
2018-12-15T13:17:05.890Z,12.23
2018-12-15T13:19:34.255Z,12.57
2018-12-15T13:22:02.646Z,12.20
2018-12-15T13:24:31.357Z,12.07
2018-12-15T13:27:00.553Z,12.83
2018-12-15T13:29:29.719Z,12.17
2018-12-15T13:31:58.426Z,13.23
2018-12-15T13:34:26.800Z,13.33
2018-12-15T13:36:55.242Z,12.43
2018-12-15T13:39:23.759Z,12.77
2018-12-15T13:41:52.037Z,12.93
2018-12-15T13:44:20.385Z,12.63
2018-12-15T13:46:48.902Z,11.90
2018-12-15T13:49:17.529Z,11.43
2018-12-15T13:51:45.907Z,11.70
2018-12-15T13:54:14.513Z,12.57
2018-12-15T13:56:42.808Z,11.57
2018-12-15T13:59:11.171Z,12.67
2018-12-15T14:01:39.497Z,12.27
2018-12-15T14:04:07.805Z,12.17
2018-12-15T14:06:36.108Z,12.77
2018-12-15T14:09:06.453Z,11.57
2018-12-15T14:11:34.738Z,12.20
2018-12-15T14:14:03.170Z,12.43
2018-12-15T14:16:31.781Z,13.07
2018-12-15T14:19:00.044Z,13.27
2018-12-15T14:21:28.352Z,13.30
2018-12-15T14:23:56.734Z,13.30
2018-12-15T14:26:25.320Z,12.53
2018-12-15T14:28:53.545Z,13.73
2018-12-15T14:31:22.196Z,13.40
2018-12-15T14:33:50.878Z,12.23
2018-12-15T14:36:19.200Z,13.20
2018-12-15T14:38:47.669Z,13.77
2018-12-15T14:41:16.113Z,12.37
2018-12-15T14:43:48.612Z,12.17
2018-12-15T14:46:16.918Z,11.50
2018-12-15T14:48:45.183Z,13.40
2018-12-15T14:51:13.425Z,11.60
2018-12-15T14:53:41.718Z,12.57
2018-12-15T14:56:09.999Z,12.33
2018-12-15T14:58:38.229Z,11.43
2018-12-15T15:01:06.590Z,11.73
2018-12-15T15:03:35.088Z,12.07
2018-12-15T15:06:03.346Z,15.00
2018-12-15T15:08:31.763Z,12.98
2018-12-15T15:11:00.174Z,13.27
2018-12-15T15:13:34.341Z,12.10
2018-12-15T15:15:58.939Z,11.83
2018-12-15T15:18:27.246Z,12.13
2018-12-15T15:20:55.678Z,11.43
2018-12-15T15:23:24.010Z,11.37
2018-12-15T15:25:52.408Z,12.40
2018-12-15T15:28:20.986Z,13.00
2018-12-15T15:30:49.284Z,12.60
2018-12-15T15:33:17.681Z,12.20
2018-12-15T15:35:45.955Z,12.63
2018-12-15T15:38:14.746Z,11.70
2018-12-15T15:40:43.697Z,13.07
2018-12-15T15:43:12.069Z,14.03
2018-12-15T15:45:40.327Z,13.03
2018-12-15T15:48:08.763Z,12.70
2018-12-15T15:50:37.178Z,13.27
2018-12-15T15:53:05.674Z,13.03
2018-12-15T15:55:34.010Z,12.83
2018-12-15T15:58:02.567Z,12.23
2018-12-15T16:00:30.956Z,12.97
2018-12-15T16:02:59.254Z,12.63
2018-12-15T16:05:28.250Z,13.23
2018-12-15T16:07:56.701Z,12.57
2018-12-15T16:10:25.171Z,13.23
2018-12-15T16:12:53.424Z,13.53
2018-12-15T16:15:21.878Z,12.97
2018-12-15T16:17:50.130Z,12.50
2018-12-15T16:20:18.604Z,13.03
2018-12-15T16:22:46.978Z,13.17
2018-12-15T16:25:15.404Z,12.87
2018-12-15T16:27:43.661Z,13.00
2018-12-15T16:30:12.695Z,13.87
2018-12-15T16:32:41.058Z,15.03
2018-12-15T16:35:09.578Z,12.60
2018-12-15T16:37:38.020Z,12.73
2018-12-15T16:40:07.092Z,13.80
2018-12-15T16:42:35.397Z,13.33
2018-12-15T16:45:04.874Z,12.78
2018-12-15T16:47:33.163Z,12.90
2018-12-15T16:50:01.538Z,13.23
2018-12-15T16:52:30.165Z,13.40
2018-12-15T16:54:59.004Z,12.83
2018-12-15T16:57:27.622Z,13.47
2018-12-15T16:59:55.906Z,13.43
2018-12-15T17:02:24.325Z,13.43
2018-12-15T17:04:52.678Z,14.90
2018-12-15T17:07:20.937Z,13.47
2018-12-15T17:09:49.495Z,14.00
2018-12-15T17:12:18.054Z,12.87
2018-12-15T17:14:46.526Z,13.17
2018-12-15T17:17:15.663Z,13.50
2018-12-15T17:19:44.371Z,13.33
2018-12-15T17:22:12.922Z,13.93
2018-12-15T17:24:41.451Z,14.00
2018-12-15T17:27:09.796Z,12.87
2018-12-15T17:29:38.293Z,13.63
2018-12-15T17:32:06.691Z,13.60
2018-12-15T17:34:35.150Z,12.87
2018-12-15T17:37:03.481Z,14.33
2018-12-15T17:39:32.246Z,14.57
2018-12-15T17:42:00.734Z,15.03
2018-12-15T17:44:29.395Z,14.80
2018-12-15T17:46:57.744Z,14.13
2018-12-15T17:49:28.412Z,14.10
2018-12-15T17:51:56.803Z,13.75
2018-12-15T17:54:25.309Z,14.23
2018-12-15T17:56:53.591Z,14.10
2018-12-15T17:59:21.975Z,14.50
2018-12-15T18:01:50.746Z,14.17
2018-12-15T18:04:19.873Z,14.70
2018-12-15T18:06:48.712Z,14.30
2018-12-15T18:09:17.219Z,14.53
2018-12-15T18:11:46.052Z,15.30
2018-12-15T18:14:14.681Z,14.87
2018-12-15T18:16:43.064Z,15.60
2018-12-15T18:19:12.999Z,14.43
2018-12-15T18:21:49.506Z,14.43
2018-12-15T18:24:18.010Z,14.97
2018-12-15T18:26:46.473Z,14.97
2018-12-15T18:29:14.828Z,15.20
2018-12-15T18:31:43.105Z,15.67
2018-12-15T18:34:11.664Z,14.83
2018-12-15T18:36:40.072Z,16.97
2018-12-15T18:39:08.654Z,15.57
2018-12-15T18:41:37.409Z,15.50
2018-12-15T18:44:05.670Z,14.13
2018-12-15T18:46:34.272Z,15.47
2018-12-15T18:49:02.647Z,14.93
2018-12-15T18:51:31.114Z,14.97
2018-12-15T18:53:59.501Z,14.40
2018-12-15T18:56:28.452Z,16.87
2018-12-15T18:58:57.071Z,15.53
2018-12-15T19:01:25.923Z,16.33
2018-12-15T19:06:46.056Z,15.47
2018-12-15T19:09:14.457Z,16.73
2018-12-15T19:11:42.952Z,17.10
2018-12-15T19:14:11.233Z,16.57
2018-12-15T19:16:39.715Z,16.43
2018-12-15T19:19:07.967Z,17.27
2018-12-15T19:21:36.832Z,17.63
2018-12-15T19:24:05.347Z,15.73
2018-12-15T19:26:34.018Z,17.30
2018-12-15T19:29:02.994Z,15.80
2018-12-15T19:31:31.718Z,16.93
2018-12-15T19:34:00.019Z,16.33
2018-12-15T19:36:28.394Z,15.97
2018-12-15T19:38:57.458Z,16.07
2018-12-15T19:41:30.960Z,16.77
2018-12-15T19:43:59.351Z,16.50
2018-12-15T19:46:27.998Z,16.53
2018-12-15T19:48:56.712Z,15.07
2018-12-15T19:51:29.636Z,15.83
2018-12-15T19:53:55.515Z,14.63
2018-12-15T19:56:23.976Z,15.53
2018-12-15T19:58:52.685Z,15.77
2018-12-15T20:01:21.487Z,16.17
2018-12-15T20:03:49.701Z,15.00
2018-12-15T20:06:18.273Z,15.00
2018-12-15T20:08:46.537Z,15.90
2018-12-15T20:11:15.025Z,16.62
2018-12-15T20:13:43.647Z,15.57
2018-12-15T20:16:11.936Z,16.30
2018-12-15T20:18:40.460Z,15.87
2018-12-15T20:21:08.877Z,15.87
2018-12-15T20:23:37.428Z,15.60
2018-12-15T20:26:05.863Z,14.73
2018-12-15T20:28:34.599Z,15.40
2018-12-15T20:31:02.996Z,14.77
2018-12-15T20:33:31.412Z,14.03
2018-12-15T20:36:00.670Z,14.07
2018-12-15T20:38:30.663Z,15.33
2018-12-15T20:40:59.177Z,15.30
2018-12-15T20:43:27.869Z,14.30
2018-12-15T20:45:56.292Z,13.97
2018-12-15T20:48:25.167Z,14.30
2018-12-15T20:50:53.526Z,14.90
2018-12-15T20:53:21.944Z,15.03
2018-12-15T20:55:50.669Z,14.50
2018-12-15T20:58:19.155Z,13.87
2018-12-15T21:00:47.718Z,13.20
2018-12-15T21:03:16.098Z,14.27
2018-12-15T21:05:44.471Z,14.37
2018-12-15T21:08:13.040Z,14.33
2018-12-15T21:10:41.853Z,13.60
2018-12-15T21:13:10.226Z,17.77
2018-12-15T21:15:42.959Z,20.90
2018-12-15T21:18:11.486Z,16.07
2018-12-15T21:20:39.967Z,18.43
2018-12-15T21:23:08.373Z,13.60
2018-12-15T21:25:36.709Z,15.33
2018-12-15T21:28:05.163Z,14.07
2018-12-15T21:30:33.493Z,15.13
2018-12-15T21:33:02.080Z,14.00
2018-12-15T21:35:30.515Z,14.03
2018-12-15T21:37:59.109Z,13.33
2018-12-15T21:40:27.513Z,13.70
2018-12-15T21:42:56.216Z,13.33
2018-12-15T21:45:24.964Z,13.93
2018-12-15T21:47:57.551Z,12.93
2018-12-15T21:50:24.673Z,13.63
2018-12-15T21:52:53.239Z,13.43
2018-12-15T21:55:21.850Z,12.73
2018-12-15T21:57:50.426Z,12.93
2018-12-15T22:00:18.852Z,13.23
2018-12-15T22:02:48.223Z,12.63
2018-12-15T22:05:16.659Z,12.30
2018-12-15T22:07:45.866Z,12.27
2018-12-15T22:10:14.402Z,12.27
2018-12-15T22:12:43.018Z,12.83
2018-12-15T22:15:11.619Z,13.27
2018-12-15T22:17:40.044Z,12.57
2018-12-15T22:20:09.905Z,13.03
2018-12-15T22:22:39.262Z,13.20
2018-12-15T22:25:07.910Z,12.13
2018-12-15T22:27:36.161Z,11.97
2018-12-15T22:30:05.120Z,11.70
2018-12-15T22:32:33.673Z,12.03
2018-12-15T22:35:02.472Z,12.13
2018-12-15T22:37:30.903Z,11.77
2018-12-15T22:39:59.796Z,11.30
2018-12-15T22:42:28.082Z,11.93
2018-12-15T22:45:00.839Z,11.67
2018-12-15T22:47:29.228Z,11.33
2018-12-15T22:49:57.735Z,11.30
2018-12-15T22:52:26.471Z,12.13
2018-12-15T22:54:54.883Z,12.17
2018-12-15T22:57:23.329Z,11.85
2018-12-15T22:59:51.609Z,11.57
2018-12-15T23:02:20.246Z,11.50
2018-12-15T23:04:48.788Z,12.20
2018-12-15T23:07:17.271Z,12.37
2018-12-15T23:09:45.849Z,11.53
2018-12-15T23:12:14.470Z,12.55
2018-12-15T23:14:44.446Z,11.27
2018-12-15T23:17:14.410Z,12.50
2018-12-15T23:19:44.491Z,12.10
2018-12-15T23:22:16.392Z,11.63
2018-12-15T23:24:45.574Z,11.57
2018-12-15T23:27:13.895Z,12.20
2018-12-15T23:29:42.547Z,11.30
2018-12-15T23:32:11.549Z,11.25
2018-12-15T23:34:40.284Z,12.00
2018-12-15T23:37:09.732Z,11.33
2018-12-15T23:39:38.321Z,11.73
2018-12-15T23:42:06.798Z,11.80
2018-12-15T23:44:35.211Z,11.27
2018-12-15T23:47:04.395Z,11.80
2018-12-15T23:49:32.722Z,11.87
2018-12-15T23:52:01.203Z,11.47
2018-12-15T23:54:30.491Z,10.87
2018-12-15T23:56:59.185Z,11.87
2018-12-15T23:59:28.106Z,10.70
